Time;durP1;ratioP1;P1;durP2;ratioP2;P2;SDS_P1;SDS_P2;PMS_P1;PMS_P2;Temp;Humidity;BMP_temperature;BMP_pressure;BME280_temperature;BME280_humidity;BME280_pressure;Samples;Min_cycle;Max_cycle;Signal;HPM_P1;HPM_P2
2021/12/10 00:01:48;;;;;;;13.70;4.75;;;;;;;3.76;69.61;97485.25;4468663;32;20157;-82
2021/12/10 00:04:14;;;;;;;12.07;3.85;;;;;;;3.93;69.36;97487.03;4470076;32;20099;-82
2021/12/10 00:06:49;;;;;;;10.93;3.62;;;;;;;3.78;69.71;97472.16;4468705;32;20076;-82
2021/12/10 00:09:19;;;;;;;10.63;3.22;;;;;;;3.35;71.47;97477.63;4471928;32;20644;-82
2021/12/10 00:11:51;;;;;;;10.45;3.50;;;;;;;3.07;72.72;97480.66;4471336;32;20096;-83
2021/12/10 00:14:18;;;;;;;10.15;3.30;;;;;;;3.55;71.61;97489.72;4472475;32;20148;-83
2021/12/10 00:16:43;;;;;;;9.90;3.08;;;;;;;3.43;71.94;97479.88;4471204;32;20097;-83
2021/12/10 00:21:37;;;;;;;12.05;3.95;;;;;;;3.49;72.20;97480.44;4472010;32;20131;-83
2021/12/10 00:24:03;;;;;;;10.88;3.47;;;;;;;3.21;73.67;97487.84;4472319;32;20107;-83
2021/12/10 00:26:28;;;;;;;10.68;3.58;;;;;;;3.59;72.10;97475.63;4472061;32;20360;-83
2021/12/10 00:29:01;;;;;;;12.13;3.60;;;;;;;3.40;72.58;97487.81;4472141;32;20117;-83
2021/12/10 00:34:14;;;;;;;12.35;4.35;;;;;;;3.33;73.53;97485.50;4472136;32;20135;-83
2021/12/10 00:36:41;;;;;;;14.98;4.78;;;;;;;3.59;72.25;97487.81;4472182;32;20133;-83
2021/12/10 00:39:10;;;;;;;12.55;4.80;;;;;;;3.60;72.17;97495.56;4470382;32;20105;-83
2021/12/10 00:41:36;;;;;;;12.48;4.15;;;;;;;3.46;73.15;97506.63;4471988;32;20093;-83
2021/12/10 00:44:02;;;;;;;12.75;4.22;;;;;;;3.29;73.73;97507.41;4470342;32;20081;-83
2021/12/10 00:46:28;;;;;;;12.07;3.85;;;;;;;3.62;72.48;97511.94;4472036;32;20223;-83
2021/12/10 00:48:54;;;;;;;11.95;3.90;;;;;;;3.37;73.12;97512.25;4471925;32;20152;-83
2021/12/10 00:51:19;;;;;;;12.68;3.67;;;;;;;3.32;72.92;97514.22;4471885;32;20095;-82
2021/12/10 00:53:45;;;;;;;12.80;4.40;;;;;;;3.51;71.95;97504.62;4470499;32;20093;-82
2021/12/10 00:56:11;;;;;;;11.63;4.47;;;;;;;3.65;71.17;97498.81;4471544;32;20099;-82
2021/12/10 00:58:37;;;;;;;13.02;4.05;;;;;;;3.31;72.18;97515.97;4470777;32;20097;-82
2021/12/10 01:01:07;;;;;;;12.15;3.87;;;;;;;3.24;72.75;97506.75;4470763;32;20162;-82
2021/12/10 01:03:37;;;;;;;13.05;4.37;;;;;;;3.27;72.54;97497.97;4471818;32;20084;-82
2021/12/10 01:06:07;;;;;;;15.77;5.07;;;;;;;3.40;71.69;97485.22;4471550;32;20616;-82
2021/12/10 01:08:34;;;;;;;15.02;5.37;;;;;;;3.08;73.42;97493.59;4471440;32;20089;-82
2021/12/10 01:11:08;;;;;;;15.98;5.78;;;;;;;2.82;74.10;97493.91;4472287;32;20084;-83
2021/12/10 01:13:35;;;;;;;15.90;6.10;;;;;;;3.15;73.15;97478.56;4471664;32;20453;-82
2021/12/10 01:24:18;;;;;;;15.93;5.72;;;;;;;3.20;72.70;97493.97;4471773;32;20384;-83
2021/12/10 01:29:21;;;;;;;16.05;5.43;;;;;;;2.91;73.66;97488.31;4471609;32;20096;-83
2021/12/10 01:31:47;;;;;;;14.20;5.43;;;;;;;2.98;73.52;97487.13;4470488;32;20542;-83
2021/12/10 01:34:13;;;;;;;15.52;5.25;;;;;;;2.92;73.85;97490.84;4470840;32;20097;-83
2021/12/10 01:36:39;;;;;;;16.00;5.18;;;;;;;3.12;72.82;97489.09;4471666;32;20369;-83
2021/12/10 01:39:09;;;;;;;15.65;5.47;;;;;;;3.08;72.58;97491.00;4471700;32;20161;-83
2021/12/10 01:41:38;;;;;;;16.33;5.40;;;;;;;2.98;73.00;97492.34;4470482;32;20136;-82
2021/12/10 01:44:14;;;;;;;16.30;5.62;;;;;;;2.82;73.91;97506.91;4471551;32;20429;-83
2021/12/10 01:46:40;;;;;;;13.57;4.47;;;;;;;2.98;73.25;97520.94;4470524;32;20073;-83
2021/12/10 01:49:07;;;;;;;14.23;5.00;;;;;;;2.95;72.88;97518.47;4470278;32;20260;-83
2021/12/10 01:51:36;;;;;;;11.68;3.87;;;;;;;3.08;72.17;97521.38;4471584;32;20088;-83
2021/12/10 01:54:08;;;;;;;13.57;4.45;;;;;;;3.15;72.14;97525.41;4471432;32;20102;-83
2021/12/10 01:56:35;;;;;;;13.32;4.72;;;;;;;3.55;70.63;97518.34;4471616;32;20452;-83
2021/12/10 01:59:04;;;;;;;14.02;4.62;;;;;;;3.64;69.98;97511.88;4471695;32;20137;-83
2021/12/10 02:01:35;;;;;;;12.48;4.60;;;;;;;3.70;69.83;97509.81;4470785;32;20088;-83
2021/12/10 02:04:04;;;;;;;11.52;3.90;;;;;;;3.98;69.10;97502.44;4470271;32;20092;-83
2021/12/10 02:06:29;;;;;;;12.27;3.83;;;;;;;3.78;69.69;97493.81;4471477;32;20399;-83
2021/12/10 02:08:54;;;;;;;9.07;3.03;;;;;;;3.78;68.49;97493.81;4471570;32;20108;-83
2021/12/10 02:11:20;;;;;;;11.63;3.53;;;;;;;3.55;69.19;97502.72;4471596;32;20128;-83
2021/12/10 02:13:46;;;;;;;11.85;3.53;;;;;;;3.81;68.42;97513.69;4471533;32;20132;-83
2021/12/10 02:16:13;;;;;;;11.60;3.35;;;;;;;3.94;68.28;97501.78;4471469;32;20085;-84
2021/12/10 02:18:38;;;;;;;10.82;3.70;;;;;;;4.01;67.81;97510.13;4471349;32;20410;-84
2021/12/10 02:21:14;;;;;;;11.32;3.95;;;;;;;4.01;67.00;97508.34;4471476;32;20113;-83
2021/12/10 02:23:46;;;;;;;10.48;3.87;;;;;;;3.87;67.75;97511.63;4470319;32;20367;-83
2021/12/10 02:26:14;;;;;;;10.70;3.72;;;;;;;4.11;67.26;97511.34;4471377;32;20084;-83
2021/12/10 02:28:40;;;;;;;10.57;3.42;;;;;;;3.80;68.07;97509.37;4471505;32;20084;-83
2021/12/10 02:31:08;;;;;;;10.10;3.62;;;;;;;4.00;66.92;97504.06;4470534;32;20096;-83
2021/12/10 02:33:33;;;;;;;10.00;3.20;;;;;;;3.82;67.40;97513.59;4471343;32;20107;-83
2021/12/10 02:35:59;;;;;;;9.35;3.80;;;;;;;3.79;67.44;97521.59;4470091;32;20077;-83
2021/12/10 02:38:24;;;;;;;11.00;3.25;;;;;;;3.83;67.35;97522.28;4471343;32;20119;-83
2021/12/10 02:40:52;;;;;;;11.25;3.42;;;;;;;3.83;67.41;97517.91;4471367;32;20084;-83
2021/12/10 02:43:19;;;;;;;10.00;3.35;;;;;;;3.97;67.09;97521.63;4471306;32;20097;-83
2021/12/10 02:45:48;;;;;;;11.02;3.60;;;;;;;4.04;66.87;97521.25;4469923;32;20504;-83
2021/12/10 02:48:13;;;;;;;11.02;3.60;;;;;;;4.19;66.90;97524.00;4471115;32;20111;-83
2021/12/10 02:50:39;;;;;;;10.18;3.22;;;;;;;4.25;66.69;97524.56;4471273;32;20081;-83
2021/12/10 02:53:07;;;;;;;11.02;3.42;;;;;;;3.80;67.21;97525.03;4471168;32;20230;-83
2021/12/10 02:55:33;;;;;;;10.23;2.95;;;;;;;3.86;66.75;97520.38;4469904;32;20084;-83
2021/12/10 02:58:05;;;;;;;9.57;3.40;;;;;;;3.81;66.73;97518.91;4471059;32;20123;-83
2021/12/10 03:00:35;;;;;;;10.98;4.20;;;;;;;3.99;66.17;97509.34;4471231;32;20474;-82
2021/12/10 03:03:00;;;;;;;10.75;3.25;;;;;;;3.93;66.60;97505.28;4471077;32;20080;-83
2021/12/10 03:05:26;;;;;;;8.93;3.17;;;;;;;3.81;66.78;97500.69;4470697;32;20406;-82
2021/12/10 03:07:52;;;;;;;12.30;3.87;;;;;;;4.03;65.88;97503.91;4471003;32;20116;-83
2021/12/10 03:10:22;;;;;;;10.98;4.28;;;;;;;4.11;65.54;97491.38;4471009;32;20093;-82
2021/12/10 03:12:48;;;;;;;11.38;4.05;;;;;;;4.03;65.78;97492.66;4470974;32;20077;-84
2021/12/10 03:15:16;;;;;;;10.73;3.72;;;;;;;3.96;65.83;97502.53;4476252;32;20106;-83
2021/12/10 03:17:42;;;;;;;13.62;4.18;;;;;;;3.79;66.40;97507.72;4486044;31;20124;-83
2021/12/10 03:20:10;;;;;;;12.57;4.57;;;;;;;3.56;67.45;97501.84;4486131;31;20360;-83
2021/12/10 03:22:37;;;;;;;12.88;4.20;;;;;;;3.64;67.22;97499.69;4485055;32;20547;-82
2021/12/10 03:25:04;;;;;;;11.80;4.28;;;;;;;3.20;68.62;97494.78;4486445;31;20096;-83
2021/12/10 03:27:30;;;;;;;12.75;5.05;;;;;;;3.31;68.76;97502.13;4486140;31;20467;-83
2021/12/10 03:29:56;;;;;;;11.57;4.25;;;;;;;3.30;68.63;97503.03;4485979;31;20091;-83
2021/12/10 03:32:25;;;;;;;13.38;4.65;;;;;;;3.66;67.69;97510.06;4486099;31;20119;-83
2021/12/10 03:34:52;;;;;;;14.25;5.30;;;;;;;3.96;67.04;97519.91;4486147;31;20115;-84
2021/12/10 03:37:19;;;;;;;11.60;4.47;;;;;;;4.03;66.73;97516.94;4486070;31;20097;-83
2021/12/10 03:39:46;;;;;;;12.90;4.75;;;;;;;4.17;65.86;97531.91;4486115;31;20491;-83
2021/12/10 03:42:12;;;;;;;14.85;5.50;;;;;;;4.02;65.84;97533.50;4486311;31;20130;-84
2021/12/10 03:44:38;;;;;;;15.60;6.37;;;;;;;4.01;66.15;97533.56;4488048;31;20427;-80
2021/12/10 03:47:05;;;;;;;14.23;5.68;;;;;;;4.13;66.19;97535.56;4487756;31;20092;-80
2021/12/10 03:49:31;;;;;;;15.27;5.75;;;;;;;4.34;65.91;97539.72;4488305;31;20151;-79
2021/12/10 03:51:57;;;;;;;15.73;6.10;;;;;;;4.21;65.70;97535.19;4487156;32;20088;-80
2021/12/10 03:54:23;;;;;;;15.57;6.43;;;;;;;4.53;64.77;97536.22;4486526;32;20092;-80
2021/12/10 03:56:49;;;;;;;17.55;6.35;;;;;;;4.38;64.88;97531.78;4486841;32;20379;-77
2021/12/10 03:59:16;;;;;;;15.52;5.80;;;;;;;4.24;64.02;97529.84;4487663;31;20648;-79
2021/12/10 04:01:46;;;;;;;17.00;7.07;;;;;;;4.47;63.50;97526.09;4487540;31;20104;-79
2021/12/10 04:04:17;;;;;;;14.52;6.37;;;;;;;4.49;63.82;97535.53;4487678;31;20092;-79
2021/12/10 04:06:43;;;;;;;15.05;5.62;;;;;;;4.64;63.82;97536.53;4486225;32;20123;-79
2021/12/10 04:09:08;;;;;;;13.85;5.47;;;;;;;4.55;63.61;97539.59;4487744;31;20088;-79
2021/12/10 04:11:35;;;;;;;16.83;6.93;;;;;;;4.66;63.21;97537.28;4486791;32;20178;-79
2021/12/10 04:14:00;;;;;;;13.98;6.05;;;;;;;4.58;62.60;97535.97;4486677;32;20156;-78
2021/12/10 04:16:28;;;;;;;18.37;7.30;;;;;;;4.63;62.58;97536.59;4487063;32;20368;-79
2021/12/10 04:18:55;;;;;;;18.25;6.57;;;;;;;4.64;62.41;97536.53;4487842;31;20088;-79
2021/12/10 04:21:22;;;;;;;15.00;6.20;;;;;;;4.55;62.20;97536.16;4488238;31;20131;-79
2021/12/10 04:23:48;;;;;;;16.30;6.30;;;;;;;4.50;62.29;97537.22;4486472;32;20084;-79
2021/12/10 04:26:16;;;;;;;15.23;6.18;;;;;;;4.43;62.72;97548.03;4487999;32;20153;-80
2021/12/10 04:28:41;;;;;;;;;;;;;;;4.39;63.33;97546.50;4488495;31;20463;-79
2021/12/10 04:31:07;;;;;;;15.13;6.35;;;;;;;4.25;63.74;97554.97;4488177;32;19986;-80
2021/12/10 04:33:32;;;;;;;16.45;6.85;;;;;;;4.45;63.39;97556.63;4486990;32;20077;-80
2021/12/10 04:36:00;;;;;;;18.17;7.65;;;;;;;4.52;63.44;97560.63;4488168;31;20104;-81
2021/12/10 04:38:26;;;;;;;;;;;;;;;4.54;63.50;97569.22;4488445;31;20155;-80
2021/12/10 04:40:54;;;;;;;19.35;7.20;;;;;;;4.46;63.58;97571.34;4488158;31;20243;-81
2021/12/10 04:43:21;;;;;;;19.23;8.00;;;;;;;4.42;63.85;97564.59;4488045;31;20076;-81
2021/12/10 04:45:47;;;;;;;18.77;7.28;;;;;;;4.47;63.91;97565.22;4487925;31;20092;-79
2021/12/10 04:48:13;;;;;;;17.23;7.05;;;;;;;4.52;63.97;97566.69;4488295;31;20162;-79
2021/12/10 04:50:38;;;;;;;17.90;7.60;;;;;;;4.37;64.03;97570.03;4486953;32;20141;-81
2021/12/10 04:53:09;;;;;;;18.77;8.23;;;;;;;4.62;63.80;97569.66;4486757;32;20088;-80
2021/12/10 04:55:35;;;;;;;17.73;7.50;;;;;;;4.66;63.96;97572.97;4487595;31;20136;-81
2021/12/10 04:58:01;;;;;;;17.00;6.97;;;;;;;4.73;64.05;97582.16;4486837;32;20127;-81
2021/12/10 05:00:30;;;;;;;19.62;8.23;;;;;;;4.82;63.99;97586.09;4486779;32;20336;-81
2021/12/10 05:02:57;;;;;;;18.48;7.05;;;;;;;4.93;63.65;97594.22;4486759;32;20114;-80
2021/12/10 05:05:23;;;;;;;18.83;7.45;;;;;;;4.76;63.74;97596.84;4486439;32;20639;-81
2021/12/10 05:07:48;;;;;;;18.58;7.80;;;;;;;4.79;63.50;97602.75;4487923;31;20153;-82
2021/12/10 05:10:15;;;;;;;19.70;7.75;;;;;;;4.94;63.17;97603.72;4487889;31;20120;-81
2021/12/10 05:12:41;;;;;;;17.90;7.85;;;;;;;4.94;63.21;97593.28;4487832;31;20142;-81
2021/12/10 05:15:10;;;;;;;22.30;8.90;;;;;;;4.83;62.95;97598.19;4487756;32;20368;-82
2021/12/10 05:17:35;;;;;;;19.23;7.85;;;;;;;4.85;63.12;97606.81;4487633;31;20456;-78
2021/12/10 05:20:12;;;;;;;22.20;9.82;;;;;;;4.93;62.87;97605.50;4486301;32;20115;-78
2021/12/10 05:22:39;;;;;;;21.52;8.63;;;;;;;4.96;62.76;97601.88;4487518;31;20474;-79
2021/12/10 05:25:05;;;;;;;24.25;10.98;;;;;;;4.91;62.52;97596.91;4487425;31;20707;-79
2021/12/10 05:27:31;;;;;;;20.73;9.13;;;;;;;4.83;62.89;97596.44;4487573;31;20108;-79
2021/12/10 05:29:56;;;;;;;22.75;10.25;;;;;;;4.92;62.80;97598.59;4486250;32;20413;-78
2021/12/10 05:32:22;;;;;;;22.83;9.77;;;;;;;4.91;62.91;97598.66;4487293;31;20126;-77
2021/12/10 05:34:47;;;;;;;20.30;9.02;;;;;;;4.91;63.11;97602.13;4486583;32;20097;-79
2021/12/10 05:37:13;;;;;;;23.45;9.70;;;;;;;4.97;63.12;97608.78;4487777;31;20123;-78
2021/12/10 05:39:39;;;;;;;23.45;9.82;;;;;;;5.04;63.26;97614.53;4486542;32;20526;-77
2021/12/10 05:42:05;;;;;;;22.67;9.13;;;;;;;5.06;62.28;97610.94;4486173;32;20132;-78
2021/12/10 05:44:31;;;;;;;21.23;8.80;;;;;;;5.10;62.14;97598.59;4486049;32;20143;-78
2021/12/10 05:46:58;;;;;;;20.15;8.88;;;;;;;4.99;62.33;97601.72;4487279;32;20112;-78
2021/12/10 05:49:24;;;;;;;20.92;9.10;;;;;;;4.82;62.46;97601.75;4487398;31;20084;-77
2021/12/10 05:51:49;;;;;;;20.20;8.75;;;;;;;4.92;62.46;97595.13;4487332;31;20454;-78
2021/12/10 05:54:15;;;;;;;20.62;9.63;;;;;;;4.88;62.54;97593.59;4484297;31;20482;-78
2021/12/10 05:56:40;;;;;;;19.77;8.25;;;;;;;4.92;62.48;97595.13;4485820;31;20155;-76
2021/12/10 05:59:06;;;;;;;20.70;8.60;;;;;;;4.83;62.36;97585.16;4486132;32;20403;-78
2021/12/10 06:01:32;;;;;;;20.52;8.77;;;;;;;4.90;62.21;97579.53;4483885;31;20145;-75
2021/12/10 06:03:57;;;;;;;20.88;8.10;;;;;;;4.78;62.30;97571.50;4486023;31;20427;-76
2021/12/10 06:06:27;;;;;;;21.45;9.15;;;;;;;4.79;61.98;97568.81;4482676;32;20149;-77
2021/12/10 06:08:55;;;;;;;19.67;8.18;;;;;;;4.76;62.03;97574.19;4485928;32;20601;-78
2021/12/10 06:11:21;;;;;;;18.77;8.43;;;;;;;4.60;62.39;97566.31;4487269;31;20103;-78
2021/12/10 06:13:47;;;;;;;19.17;7.28;;;;;;;4.70;62.14;97566.69;4486818;31;20118;-78
2021/12/10 06:16:14;;;;;;;20.48;7.70;;;;;;;4.59;62.53;97562.00;4487120;31;20088;-78
2021/12/10 06:18:39;;;;;;;19.17;7.55;;;;;;;4.35;63.18;97556.25;4485971;32;20084;-78
2021/12/10 06:21:05;;;;;;;16.90;7.82;;;;;;;4.40;62.91;97554.22;4485502;32;20139;-78
2021/12/10 06:23:31;;;;;;;18.00;7.30;;;;;;;4.21;63.53;97556.06;4487015;31;20114;-78
2021/12/10 06:25:57;;;;;;;16.02;6.07;;;;;;;4.12;63.80;97554.75;4485818;32;20385;-77
2021/12/10 06:28:22;;;;;;;20.05;7.40;;;;;;;3.91;64.11;97552.25;4487055;31;20076;-78
2021/12/10 06:30:50;;;;;;;18.67;6.85;;;;;;;4.27;63.28;97551.41;4487016;31;20107;-78
2021/12/10 06:33:17;;;;;;;18.92;7.30;;;;;;;4.40;63.11;97556.00;4472640;32;20790;-78
2021/12/10 06:35:45;;;;;;;17.77;6.93;;;;;;;4.43;63.14;97559.31;4487113;31;20089;-78
2021/12/10 06:38:11;;;;;;;;;;;;;;;4.56;63.08;97561.28;4486274;32;20107;-78
2021/12/10 06:40:38;;;;;;;19.40;6.80;;;;;;;4.68;62.51;97565.91;4486915;31;20886;-78
2021/12/10 06:43:04;;;;;;;21.25;8.82;;;;;;;4.68;62.11;97558.09;4485839;32;20093;-78
2021/12/10 06:45:30;;;;;;;22.55;9.60;;;;;;;4.73;62.19;97561.28;4486952;31;20100;-78
2021/12/10 06:47:58;;;;;;;24.40;9.65;;;;;;;4.83;62.29;97562.53;4486854;31;20458;-78
2021/12/10 06:50:26;;;;;;;22.95;9.80;;;;;;;4.74;63.30;97576.03;4486856;31;20088;-77
2021/12/10 06:52:54;;;;;;;22.77;9.73;;;;;;;4.96;63.06;97583.59;4486854;31;20093;-78
2021/12/10 06:55:19;;;;;;;21.58;9.48;;;;;;;5.06;62.95;97582.22;4487105;31;20439;-78
2021/12/10 06:57:45;;;;;;;20.77;9.85;;;;;;;5.19;62.86;97579.81;4486737;31;20142;-77
2021/12/10 07:00:17;;;;;;;20.83;9.10;;;;;;;5.17;62.81;97575.59;4486698;31;20084;-79
2021/12/10 07:02:44;;;;;;;22.27;9.25;;;;;;;5.23;62.82;97576.09;4486829;31;20092;-77
2021/12/10 07:05:10;;;;;;;22.40;9.70;;;;;;;5.21;62.80;97574.50;4485318;32;20459;-84
2021/12/10 07:07:38;;;;;;;21.40;10.25;;;;;;;5.43;62.36;97569.00;4486734;31;20108;-81
2021/12/10 07:10:05;;;;;;;21.83;9.32;;;;;;;5.52;62.10;97565.88;4482769;32;20069;-75
2021/12/10 07:12:31;;;;;;;23.83;10.30;;;;;;;5.61;61.72;97560.16;4485646;31;20103;-75
2021/12/10 07:15:00;;;;;;;21.40;9.18;;;;;;;5.55;61.47;97564.91;4477523;32;20091;-77
2021/12/10 07:17:26;;;;;;;19.98;8.38;;;;;;;5.44;60.92;97558.47;4485621;31;20122;-77
2021/12/10 07:19:51;;;;;;;19.90;9.20;;;;;;;5.60;60.58;97550.66;4484898;32;20507;-82
2021/12/10 07:22:17;;;;;;;18.10;7.97;;;;;;;5.62;60.48;97551.44;4485948;31;20108;-76
2021/12/10 07:24:42;;;;;;;22.62;9.02;;;;;;;5.67;59.43;97554.59;4485909;31;20091;-78
2021/12/10 07:27:11;;;;;;;20.95;8.85;;;;;;;5.51;59.74;97545.94;4483732;32;20161;-78
2021/12/10 07:29:38;;;;;;;21.95;9.38;;;;;;;5.49;59.91;97559.06;4484685;32;20100;-78
2021/12/10 07:32:04;;;;;;;23.50;10.25;;;;;;;5.49;59.90;97555.63;4485871;31;20451;-78
2021/12/10 07:34:29;;;;;;;29.10;11.98;;;;;;;5.43;60.22;97555.97;4485843;31;20448;-78
2021/12/10 07:36:55;;;;;;;29.95;11.60;;;;;;;5.54;60.35;97552.75;4484771;32;20134;-78
2021/12/10 07:39:20;;;;;;;28.77;12.20;;;;;;;5.62;60.59;97555.78;4485696;31;20088;-78
2021/12/10 07:41:47;;;;;;;30.30;12.37;;;;;;;5.62;60.49;97548.81;4485942;31;20153;-78
2021/12/10 07:44:13;;;;;;;29.45;12.52;;;;;;;5.67;60.46;97543.31;4485043;32;20169;-79
2021/12/10 07:46:40;;;;;;;31.87;12.00;;;;;;;5.67;59.91;97544.16;4486075;31;20155;-78
2021/12/10 07:49:13;;;;;;;32.20;12.63;;;;;;;5.69;59.77;97542.31;4486085;31;20080;-78
2021/12/10 07:51:39;;;;;;;25.52;10.80;;;;;;;5.28;60.69;97531.50;4486064;31;20096;-78
2021/12/10 07:54:04;;;;;;;31.52;12.43;;;;;;;5.27;60.66;97529.78;4484856;32;20139;-78
2021/12/10 07:56:31;;;;;;;28.20;11.40;;;;;;;5.45;60.62;97525.38;4484696;32;20083;-78
2021/12/10 07:58:57;;;;;;;26.55;11.12;;;;;;;5.51;60.29;97522.44;4485890;31;20103;-79
2021/12/10 08:01:26;;;;;;;28.17;11.23;;;;;;;5.59;60.44;97530.69;4485899;31;20088;-79
2021/12/10 08:03:53;;;;;;;28.62;12.10;;;;;;;5.56;60.54;97530.84;4484799;32;20172;-79
2021/12/10 08:06:20;;;;;;;28.23;11.05;;;;;;;5.55;60.35;97526.56;4484424;32;20096;-78
2021/12/10 08:08:46;;;;;;;25.62;11.43;;;;;;;5.68;60.28;97524.97;4485879;31;20084;-79
2021/12/10 08:11:12;;;;;;;26.80;11.65;;;;;;;5.77;59.83;97522.75;4485671;31;20104;-78
2021/12/10 08:13:38;;;;;;;28.80;12.57;;;;;;;5.76;59.42;97526.31;4485709;31;20104;-78
2021/12/10 08:16:03;;;;;;;26.70;11.55;;;;;;;5.72;59.83;97520.41;4485462;32;20416;-79
2021/12/10 08:18:29;;;;;;;26.92;11.02;;;;;;;5.76;59.59;97527.16;4485527;31;20092;-79
2021/12/10 08:20:55;;;;;;;25.52;10.57;;;;;;;5.81;59.15;97527.72;4485615;31;20225;-79
2021/12/10 08:23:21;;;;;;;25.25;11.70;;;;;;;5.83;59.24;97532.88;4485528;31;20088;-78
2021/12/10 08:25:47;;;;;;;27.35;12.07;;;;;;;5.60;59.87;97532.37;4485568;31;20133;-78
2021/12/10 08:28:13;;;;;;;29.33;11.98;;;;;;;5.72;60.19;97534.31;4485566;31;20084;-78
2021/12/10 08:30:39;;;;;;;29.27;12.75;;;;;;;5.82;60.41;97537.25;4487572;31;20123;-79
2021/12/10 08:33:12;;;;;;;27.20;12.25;;;;;;;5.90;60.57;97536.81;4488208;31;20101;-79
2021/12/10 08:35:44;;;;;;;30.10;12.82;;;;;;;5.95;60.73;97540.06;4487010;32;20193;-79
2021/12/10 08:38:10;;;;;;;30.95;13.00;;;;;;;6.12;60.43;97538.25;4486704;32;20159;-79
2021/12/10 08:40:42;;;;;;;28.23;13.23;;;;;;;6.13;60.46;97546.03;4488073;31;20444;-79
2021/12/10 08:43:08;;;;;;;30.80;14.13;;;;;;;6.25;60.36;97537.47;4487897;31;20485;-79
2021/12/10 08:45:34;;;;;;;30.92;13.85;;;;;;;6.32;60.20;97535.38;4487741;31;20096;-79
2021/12/10 08:48:00;;;;;;;27.58;12.43;;;;;;;6.35;59.88;97532.56;4486442;32;20084;-79
2021/12/10 08:50:28;;;;;;;30.08;12.85;;;;;;;6.27;59.63;97534.78;4487765;31;20353;-78
2021/12/10 08:52:58;;;;;;;27.60;12.32;;;;;;;6.48;58.08;97543.16;4486461;32;20123;-79
2021/12/10 08:55:25;;;;;;;33.72;13.57;;;;;;;6.47;58.23;97541.47;4487764;31;20520;-79
2021/12/10 08:57:50;;;;;;;22.60;9.27;;;;;;;6.58;58.39;97530.38;4487763;31;20440;-78
2021/12/10 09:00:17;;;;;;;25.67;10.73;;;;;;;6.55;57.16;97527.94;4487683;31;20099;-79
2021/12/10 09:02:42;;;;;;;24.33;9.82;;;;;;;6.55;57.11;97530.56;4487694;31;20465;-79
2021/12/10 09:05:10;;;;;;;24.27;10.30;;;;;;;6.62;56.90;97517.03;4487385;32;20103;-78
2021/12/10 09:07:37;;;;;;;28.52;11.25;;;;;;;6.62;56.87;97524.87;4486434;32;20085;-78
2021/12/10 09:10:07;;;;;;;24.50;10.82;;;;;;;6.61;57.18;97525.81;4487595;31;20443;-78
2021/12/10 09:12:32;;;;;;;26.83;10.65;;;;;;;6.58;56.91;97527.78;4487904;31;20160;-78
2021/12/10 09:15:00;;;;;;;26.52;11.12;;;;;;;6.63;56.93;97537.03;4487792;31;20084;-78
2021/12/10 09:17:30;;;;;;;26.33;11.12;;;;;;;6.85;56.72;97535.78;4487749;31;20089;-78
2021/12/10 09:19:57;;;;;;;23.60;10.50;;;;;;;6.69;56.93;97530.59;4486544;32;20176;-78
2021/12/10 09:22:23;;;;;;;29.05;13.02;;;;;;;6.85;57.22;97536.59;4486756;32;20108;-78
2021/12/10 09:24:51;;;;;;;22.45;9.50;;;;;;;6.94;56.74;97531.78;4487726;31;20428;-78
2021/12/10 09:27:16;;;;;;;22.58;10.35;;;;;;;6.95;56.31;97536.06;4487803;31;20088;-78
2021/12/10 09:29:45;;;;;;;26.80;11.73;;;;;;;6.92;56.41;97534.47;4487754;31;20092;-78
2021/12/10 09:32:13;;;;;;;23.00;10.10;;;;;;;7.09;56.17;97536.91;4486598;32;20100;-78
2021/12/10 09:34:39;;;;;;;25.35;10.25;;;;;;;7.05;55.83;97532.81;4487685;31;20141;-78
2021/12/10 09:37:06;;;;;;;18.70;8.73;;;;;;;7.13;55.48;97534.09;4487719;31;20108;-78
2021/12/10 09:39:33;;;;;;;20.15;8.73;;;;;;;7.01;54.61;97530.44;4487420;31;20116;-78
2021/12/10 09:41:59;;;;;;;21.40;8.70;;;;;;;7.02;54.11;97535.59;4486298;32;20129;-78
2021/12/10 09:44:25;;;;;;;21.67;9.38;;;;;;;6.94;54.29;97532.59;4487432;31;20111;-79
2021/12/10 09:46:53;;;;;;;19.30;8.55;;;;;;;6.74;54.41;97532.94;4487314;31;20088;-78
2021/12/10 09:49:23;;;;;;;18.30;7.37;;;;;;;6.66;54.57;97533.38;4487341;31;20096;-78
2021/12/10 09:51:51;;;;;;;20.00;8.00;;;;;;;6.58;54.84;97536.47;4473629;32;20108;-78
2021/12/10 09:54:20;;;;;;;18.92;8.45;;;;;;;6.49;55.27;97545.69;4487231;31;20110;-78
2021/12/10 09:56:57;;;;;;;20.75;8.05;;;;;;;6.59;55.28;97551.25;4486053;32;20119;-78
2021/12/10 09:59:23;;;;;;;23.08;9.07;;;;;;;6.62;55.60;97547.59;4487440;31;20100;-78
2021/12/10 10:01:52;;;;;;;21.08;9.30;;;;;;;6.59;55.93;97545.16;4485995;32;20104;-78
2021/12/10 10:04:21;;;;;;;21.52;8.88;;;;;;;6.61;56.34;97548.53;4485727;32;20107;-78
2021/12/10 10:06:51;;;;;;;22.17;8.25;;;;;;;6.68;55.96;97555.06;4487238;31;20111;-78
2021/12/10 10:09:20;;;;;;;19.27;8.38;;;;;;;6.49;55.55;97558.78;4487254;31;20715;-79
2021/12/10 10:11:49;;;;;;;19.10;8.15;;;;;;;6.44;55.74;97560.81;4486097;32;20130;-79
2021/12/10 10:14:14;;;;;;;20.40;8.45;;;;;;;6.27;55.70;97558.31;4486388;32;20144;-79
2021/12/10 10:16:44;;;;;;;20.45;9.02;;;;;;;6.31;55.96;97559.81;4486319;32;20371;-78
2021/12/10 10:19:11;;;;;;;20.17;8.65;;;;;;;6.27;56.25;97561.75;4487482;31;20746;-79
2021/12/10 10:21:41;;;;;;;18.67;8.15;;;;;;;6.20;56.96;97557.84;4486173;32;20436;-79
2021/12/10 10:24:06;;;;;;;19.62;8.23;;;;;;;6.17;56.97;97551.94;4486147;32;20403;-79
2021/12/10 10:26:36;;;;;;;21.23;8.40;;;;;;;6.32;56.93;97544.97;4487263;31;20124;-79
2021/12/10 10:29:09;;;;;;;17.60;6.95;;;;;;;6.41;56.78;97537.47;4486271;32;20108;-78
2021/12/10 10:31:37;;;;;;;18.55;7.90;;;;;;;6.42;55.97;97536.50;4486217;32;20144;-78
2021/12/10 10:34:03;;;;;;;18.17;7.95;;;;;;;6.47;55.99;97534.47;4487291;31;20134;-79
2021/12/10 10:36:32;;;;;;;19.48;7.72;;;;;;;6.54;55.53;97528.88;4487330;31;20416;-79
2021/12/10 10:39:22;;;;;;;18.33;7.82;;;;;;;6.49;55.19;97527.38;4486061;32;20105;-78
2021/12/10 10:41:53;;;;;;;18.95;7.80;;;;;;;6.59;55.75;97519.00;4485920;32;20180;-78
2021/12/10 10:44:20;;;;;;;18.30;7.65;;;;;;;6.55;55.62;97512.25;4472765;32;20476;-78
2021/12/10 10:46:46;;;;;;;17.45;6.97;;;;;;;6.71;55.71;97509.59;4486861;31;20122;-78
2021/12/10 10:49:39;;;;;;;19.27;8.60;;;;;;;6.70;55.65;97503.50;4486932;31;20100;-78
2021/12/10 10:52:17;;;;;;;19.48;7.40;;;;;;;6.74;54.97;97496.31;4485103;32;20105;-78
2021/12/10 10:54:44;;;;;;;18.27;8.75;;;;;;;6.64;54.83;97490.78;4486944;31;20451;-78
2021/12/10 10:57:17;;;;;;;19.95;8.13;;;;;;;6.75;54.67;97484.91;4486726;31;20384;-79
2021/12/10 10:59:44;;;;;;;20.05;8.63;;;;;;;6.73;55.06;97479.75;4485700;32;20113;-79
2021/12/10 11:02:11;;;;;;;20.05;8.27;;;;;;;6.66;54.78;97475.81;4485623;32;20123;-78
2021/12/10 11:04:41;;;;;;;18.25;8.25;;;;;;;6.57;54.99;97473.78;4486289;31;20135;-78
2021/12/10 11:07:11;;;;;;;22.13;8.18;;;;;;;6.44;55.51;97466.62;4485454;32;20349;-78
2021/12/10 11:09:53;;;;;;;19.33;8.02;;;;;;;6.52;55.88;97467.97;4486712;32;20480;-78
2021/12/10 11:12:23;;;;;;;22.77;8.77;;;;;;;6.44;56.53;97464.03;4486796;32;20451;-79
2021/12/10 11:14:51;;;;;;;19.35;8.70;;;;;;;6.54;56.90;97473.94;4485281;32;20104;-79
2021/12/10 11:17:27;;;;;;;22.87;9.30;;;;;;;6.41;57.25;97474.69;4486812;31;20099;-78
2021/12/10 11:19:56;;;;;;;20.60;9.00;;;;;;;6.42;58.04;97470.28;4485716;32;20127;-79
2021/12/10 11:22:23;;;;;;;20.77;9.45;;;;;;;6.58;57.92;97462.34;4485645;32;20500;-79
2021/12/10 11:24:54;;;;;;;20.35;9.20;;;;;;;6.74;57.49;97459.66;4486711;31;20215;-79
2021/12/10 11:27:32;;;;;;;21.00;9.15;;;;;;;6.75;57.25;97462.19;4486436;31;20095;-79
2021/12/10 11:30:01;;;;;;;23.02;9.68;;;;;;;6.74;57.04;97457.03;4485276;32;20101;-79
2021/12/10 11:32:38;;;;;;;19.35;8.48;;;;;;;6.80;56.83;97454.03;4486462;31;20093;-79
2021/12/10 11:35:08;;;;;;;19.65;8.45;;;;;;;6.85;55.55;97452.00;4485122;32;20100;-79
2021/12/10 11:37:54;;;;;;;18.98;8.70;;;;;;;6.74;55.25;97455.28;4486457;31;20601;-79
2021/12/10 11:40:33;;;;;;;21.92;9.10;;;;;;;6.60;56.06;97461.31;4486267;31;20092;-79
2021/12/10 11:43:16;;;;;;;20.67;8.57;;;;;;;6.64;56.47;97459.38;4485133;32;20104;-79
2021/12/10 11:45:51;;;;;;;18.75;8.40;;;;;;;6.43;56.38;97454.50;4486249;31;20417;-79
2021/12/10 11:48:27;;;;;;;20.65;9.07;;;;;;;6.44;56.82;97452.72;4485054;32;20165;-79
2021/12/10 11:51:09;;;;;;;20.23;8.80;;;;;;;6.65;56.84;97450.59;4486202;31;20118;-79